AirNav   Everest Fuels
 
 1225 users online  

AK91 Elmendorf Hospital Heliport
Anchorage, Alaska, USA

GOING TO ANCHORAGE?


FAA INFORMATION EFFECTIVE 05 DECEMBER 2019

Location

FAA Identifier: AK91
Lat/Long: 61-14-07.3800N 149-44-57.3900W
61-14.123000N 149-44.956500W
61.2353833,-149.7492750
(estimated)
Elevation: 228 ft. / 69 m (estimated)
Variation: 25E (1985)
From city: 3 miles E of ANCHORAGE, AK
Time zone: UTC -9 (UTC -8 during Daylight Saving Time)
Zip code: 99506

Heliport Operations

Heliport use: Private use. Permission required prior to landing
Activation date: 08/1966
Control tower: no
ARTCC: ANCHORAGE CENTER
FSS: KENAI FLIGHT SERVICE STATION [907-283-7211]
Attendance: CONTINUOUS
Wind indicator: yes
Segmented circle: no
Lights: REQ HELIPAD LGTS WITH ELMENDORF AFB ATCT - 255.6 OR 127.2.

Heliport Communications

WX ASOS at MRI (3 nm SW): 124.25 (907-271-5277)
WX ASOS at FRN (3 nm NE): 125.0 (907-384-0132)
WX ASOS at LHD (7 nm SW): PHONE 907-245-1618
WX ASOS at ANC (8 nm SW): PHONE 907-271-5278
WX AWOS-3P at BCV (13 nm NE): 135.55 (907-688-0826)

Nearby radio navigation aids

VOR radial/distance  VOR name  Freq  Var
TEDr038/7.3ANCHORAGE VOR/DME113.1518E
BGQr144/21.0BIG LAKE VORTAC112.5019E

 
NDB name  Hdg/Dist  Freq  Var  ID
CAMPBELL LAKE050/9.433816ECMQ -.-. -- --.-

Heliport Services

Airframe service: NONE
Powerplant service: NONE
Bottled oxygen: NONE
Bulk oxygen: NONE

Runway Information

Helipad H1

Dimensions: 50 x 50 ft. / 15 x 15 m
Surface: asphalt
Runway edge lights: PERI
Latitude: 61-14.123000N
Longitude: 149-44.956500W
Elevation: 228.0 ft.
Traffic pattern: leftleft
Markings: basic, in good condition
Runway end identifier lights: no

Heliport Ownership and Management from official FAA records

Ownership: U.S. Air Force
Owner: US GOVT USAF
3OSS/DOF
ELMENDORF AFB, AK 99506
Phone 907-552-2444
Manager: AIRFIELD MANAGER
3OSS/DOF
ELMENDORF AFB, AK 99506
Phone 907-552-2444

Heliport Operational Statistics

Aircraft operations: 100/year *
100% military
* for 12-month period ending 23 July 1979

Additional Remarks

A52-H1 TREES 300' N. APCH RATIO 3-1. TREES 600' E, APCH RATIO 8-1. P-LINE 300' S, APCH RATIO 4-1. P-LINE 1000' W, APCH RATIO 10-1.
CTC BASE OPS 372.2 FOR LOCAL ADVISORY.

Instrument Procedures

There are no published instrument procedures at AK91.

Some nearby airports with instrument procedures:

PAED - Elmendorf Air Force Base (2 nm NW)
PAMR - Merrill Field Airport (3 nm SW)
PAFR - Bryant Army Airfield Heliport (3 nm NE)
PANC - Ted Stevens Anchorage International Airport (8 nm SW)
PAGQ - Big Lake Airport (18 nm N)
 
Loc | Ops | Rwys | IFR | FBO | Links
Com | Nav | Svcs | Stats | Notes

Crowley
 
Area around AK91 (Elmendorf Hospital Heliport)
 
Road maps at: MapQuest Bing Google
 
Aerial photo
No photo
 
Sectional chart

 
Airport distance calculator
Flying to Elmendorf Hospital Heliport? Find the distance to fly.

From to AK91

Sunrise and sunset
Times for 13-Dec-2019
 Local
(UTC-9)
 Zulu
(UTC)
Morning civil twilight09:0618:06
Sunrise10:0819:08
Sunset15:3900:39
Evening civil twilight16:4101:41

Current date and time
Zulu (UTC)  13-Dec-2019 14:30:43
Local (UTC-9)  13-Dec-2019 05:30:43
 
METAR
PAED 
2nm NW 
131155Z VRB06KT 10SM SCT080 M04/M05 A2930 RMK AO2A SLPNO ALSTG ESTMD
PAMR 
3nm W 
131353Z 36005KT 10SM OVC070 M01/M05 A2933 RMK AO2 SLP934 T10111050
PAFR 
3nm NE 
130158Z AUTO 00000KT 9SM BKN110 M03/M03 A2918 RMK AO2 SLP892 T10271031 FZRANO $
PALH 
7nm SW 
131353Z 06004KT 10SM OVC070 M01/M04 A2935 RMK AO2 SLP938 T10111044
PANC 
9nm SW 
131353Z 35006KT 10SM BKN070 BKN110 01/M04 A2933 RMK AO2 SLP933 T00061039
PABV 
13nm NE 
131356Z AUTO 15004KT 10SM SCT070 OVC090 M03/M04 A2935 RMK AO2 SNB18E43 SLP945 P0000 T10281039 FZRANO
TAF
PAED 
2nm NW 
131100Z 1311/1417 VRB06KT 9999 SCT040 BKN060 QNH2926INS BECMG 1323/1324 VRB06KT 9999 SCT060 QNH2955INS TX01/1400Z TNM04/1409Z
PANC 
9nm SW 
131143Z 1312/1418 03006KT P6SM VCSH BKN060 FM141300 30005KT 6SM -RASN OVC040
NOTAMs
Click for the latest NOTAMs
NOTAMs are issued by the DoD/FAA and will open in a separate window not controlled by AirNav.

 

 
 

Would you like to see your business listed on this page?

 If your business provides an interesting product or service to pilots, flight crews, aircraft, or users of the Elmendorf Hospital Heliport, you should consider listing it here.  To start the listing process, click on the button below
 
Add a business
 

Other Pages about Elmendorf Hospital Heliport

Update a link
 
Copyright © AirNav, LLC. All rights reserved. Privacy Policy  Contact